Orbital elements of ARIANE 5 R/B
| Launched | 20 March 2000 |
| Flight ended | – |
| Launch site | Europe's Spaceport, Kourou, French Guiana |
| Owner | France |
| NORAD ID | 26110 |
| Date fetched |
Epoch osculation |
Inc. [°] |
Ecc. | RA asc node [hr] |
Arg Peri. [°] |
Mean anom [°] |
Mean motion [rev/day] |
Abs. mag |
| Date fetched |
Epoch osculation |
Inc. [°] |
Ecc. | RA asc node [hr] |
Arg Peri. [°] |
Mean anom [°] |
Mean motion [rev/day] |
Abs. mag |
| 2026 May 09 17:57 | 2026 May 05 02:59:34 | 7.0252 | 0.70785 | 3.9118 | 279.3778 | 13.4285 | 2.27199 | 4.743 |
| 2026 May 08 17:57 | 2026 May 05 02:59:34 | 7.0252 | 0.70785 | 3.9118 | 279.3778 | 13.4285 | 2.27199 | 4.743 |
| 2026 May 07 17:58 | 2026 May 05 02:59:34 | 7.0252 | 0.70785 | 3.9118 | 279.3778 | 13.4285 | 2.27199 | 4.743 |
| 2026 May 06 17:57 | 2026 May 05 02:59:34 | 7.0252 | 0.70785 | 3.9118 | 279.3778 | 13.4285 | 2.27199 | 4.743 |
| 2026 May 05 17:57 | 2026 May 05 02:59:34 | 7.0252 | 0.70785 | 3.9118 | 279.3778 | 13.4285 | 2.27199 | 4.743 |
| 2026 May 04 17:57 | 2026 Apr 30 06:49:31 | 7.0231 | 0.70791 | 4.0259 | 275.9575 | 13.4285 | 2.27199 | 4.743 |
| 2026 May 03 17:57 | 2026 Apr 30 06:49:31 | 7.0231 | 0.70791 | 4.0259 | 275.9575 | 13.4285 | 2.27199 | 4.743 |
| 2026 May 02 17:57 | 2026 Apr 30 06:49:31 | 7.0231 | 0.70791 | 4.0259 | 275.9575 | 13.4285 | 2.27199 | 4.743 |
| 2026 May 01 17:56 | 2026 Apr 30 06:49:31 | 7.0231 | 0.70791 | 4.0259 | 275.9575 | 13.4285 | 2.27199 | 4.743 |
| 2026 Apr 30 17:56 | 2026 Apr 30 06:49:31 | 7.0231 | 0.70791 | 4.0259 | 275.9575 | 13.4285 | 2.27199 | 4.743 |
| 2026 Apr 29 17:57 | 2026 Apr 24 02:58:34 | 7.0197 | 0.70800 | 4.1711 | 271.6015 | 13.4285 | 2.27199 | 4.743 |
| 2026 Apr 28 17:56 | 2026 Apr 24 02:58:34 | 7.0197 | 0.70800 | 4.1711 | 271.6015 | 13.4285 | 2.27199 | 4.743 |
| 2026 Apr 27 17:58 | 2026 Apr 24 02:58:34 | 7.0197 | 0.70800 | 4.1711 | 271.6015 | 13.4285 | 2.27199 | 4.743 |
| 2026 Apr 26 17:58 | 2026 Apr 24 02:58:34 | 7.0197 | 0.70800 | 4.1711 | 271.6015 | 13.4285 | 2.27199 | 4.743 |
| 2026 Apr 25 17:58 | 2026 Apr 24 02:58:34 | 7.0197 | 0.70800 | 4.1711 | 271.6015 | 13.4285 | 2.27199 | 4.743 |
| 2026 Apr 24 17:59 | 2026 Apr 24 02:58:34 | 7.0197 | 0.70800 | 4.1711 | 271.6015 | 13.4285 | 2.27199 | 4.743 |
| 2026 Apr 23 17:57 | 2026 Apr 18 20:15:15 | 7.0162 | 0.70808 | 4.2946 | 267.8755 | 13.4285 | 2.27199 | 4.743 |
| 2026 Apr 22 17:57 | 2026 Apr 18 20:15:15 | 7.0162 | 0.70808 | 4.2946 | 267.8755 | 13.4285 | 2.27199 | 4.743 |
| 2026 Apr 21 17:57 | 2026 Apr 18 20:15:15 | 7.0162 | 0.70808 | 4.2946 | 267.8755 | 13.4285 | 2.27199 | 4.743 |
| 2026 Apr 20 17:57 | 2026 Apr 18 20:15:15 | 7.0162 | 0.70808 | 4.2946 | 267.8755 | 13.4285 | 2.27199 | 4.743 |
| 2026 Apr 19 17:58 | 2026 Apr 18 20:15:15 | 7.0162 | 0.70808 | 4.2946 | 267.8755 | 13.4285 | 2.27199 | 4.743 |
| 2026 Apr 18 17:56 | 2026 Apr 12 05:51:21 | 7.0107 | 0.70819 | 4.4498 | 263.2078 | 13.4285 | 2.27199 | 4.743 |
| 2026 Apr 16 17:57 | 2026 Apr 12 05:51:21 | 7.0107 | 0.70819 | 4.4498 | 263.2078 | 13.4285 | 2.27199 | 4.743 |
| 2026 Apr 14 17:57 | 2026 Apr 12 05:51:21 | 7.0107 | 0.70819 | 4.4498 | 263.2078 | 13.4285 | 2.27199 | 4.743 |
| 2026 Apr 13 17:57 | 2026 Apr 12 05:51:21 | 7.0107 | 0.70819 | 4.4498 | 263.2078 | 13.4285 | 2.27199 | 4.743 |
| 2026 Apr 12 17:57 | 2026 Apr 07 20:15:39 | 7.0068 | 0.70827 | 4.5533 | 260.0926 | 13.4285 | 2.27199 | 4.743 |